sensor_id;sensor_type;location;lat;lon;timestamp;temperature;humidity
15394;DHT22;7795;47.986;11.868;2022-08-21T00:01:59;20.50;83.90
15394;DHT22;7795;47.986;11.868;2022-08-21T00:04:25;20.50;83.90
15394;DHT22;7795;47.986;11.868;2022-08-21T00:06:51;20.50;83.90
15394;DHT22;7795;47.986;11.868;2022-08-21T00:09:18;20.50;84.00
15394;DHT22;7795;47.986;11.868;2022-08-21T00:11:45;20.50;84.00
15394;DHT22;7795;47.986;11.868;2022-08-21T00:14:12;20.50;84.00
15394;DHT22;7795;47.986;11.868;2022-08-21T00:16:40;20.50;83.80
15394;DHT22;7795;47.986;11.868;2022-08-21T00:19:06;20.50;83.80
15394;DHT22;7795;47.986;11.868;2022-08-21T00:21:32;20.50;83.80
15394;DHT22;7795;47.986;11.868;2022-08-21T00:23:59;20.50;83.70
15394;DHT22;7795;47.986;11.868;2022-08-21T00:26:25;20.50;83.60
15394;DHT22;7795;47.986;11.868;2022-08-21T00:28:52;20.50;83.60
15394;DHT22;7795;47.986;11.868;2022-08-21T00:31:17;20.50;83.70
15394;DHT22;7795;47.986;11.868;2022-08-21T00:33:45;20.50;83.60
15394;DHT22;7795;47.986;11.868;2022-08-21T00:36:12;20.50;83.50
15394;DHT22;7795;47.986;11.868;2022-08-21T00:38:38;20.50;83.40
15394;DHT22;7795;47.986;11.868;2022-08-21T00:41:07;20.50;83.40
15394;DHT22;7795;47.986;11.868;2022-08-21T00:43:36;20.50;83.40
15394;DHT22;7795;47.986;11.868;2022-08-21T00:46:03;20.50;83.30
15394;DHT22;7795;47.986;11.868;2022-08-21T00:48:30;20.50;83.30
15394;DHT22;7795;47.986;11.868;2022-08-21T00:51:01;20.50;83.20
15394;DHT22;7795;47.986;11.868;2022-08-21T00:53:29;20.50;83.20
15394;DHT22;7795;47.986;11.868;2022-08-21T00:55:56;20.50;83.10
15394;DHT22;7795;47.986;11.868;2022-08-21T00:58:23;20.50;83.10
15394;DHT22;7795;47.986;11.868;2022-08-21T01:00:50;20.50;83.00
15394;DHT22;7795;47.986;11.868;2022-08-21T01:03:19;20.40;82.90
15394;DHT22;7795;47.986;11.868;2022-08-21T01:05:45;20.40;82.90
15394;DHT22;7795;47.986;11.868;2022-08-21T01:08:13;20.40;82.90
15394;DHT22;7795;47.986;11.868;2022-08-21T01:10:42;20.40;82.90
15394;DHT22;7795;47.986;11.868;2022-08-21T01:13:09;20.30;82.80
15394;DHT22;7795;47.986;11.868;2022-08-21T01:15:38;20.30;82.80
15394;DHT22;7795;47.986;11.868;2022-08-21T01:18:07;20.30;82.80
15394;DHT22;7795;47.986;11.868;2022-08-21T01:20:36;20.20;82.80
15394;DHT22;7795;47.986;11.868;2022-08-21T01:23:05;20.20;82.90
15394;DHT22;7795;47.986;11.868;2022-08-21T01:25:31;20.20;82.90
15394;DHT22;7795;47.986;11.868;2022-08-21T01:27:59;20.10;82.80
15394;DHT22;7795;47.986;11.868;2022-08-21T01:30:28;20.10;82.90
15394;DHT22;7795;47.986;11.868;2022-08-21T01:32:54;20.00;82.90
15394;DHT22;7795;47.986;11.868;2022-08-21T01:35:21;20.00;83.00
15394;DHT22;7795;47.986;11.868;2022-08-21T01:37:47;20.00;83.00
15394;DHT22;7795;47.986;11.868;2022-08-21T01:40:17;20.00;83.10
15394;DHT22;7795;47.986;11.868;2022-08-21T01:42:44;19.90;83.20
15394;DHT22;7795;47.986;11.868;2022-08-21T01:45:11;19.90;83.30
15394;DHT22;7795;47.986;11.868;2022-08-21T01:47:37;19.90;83.20
15394;DHT22;7795;47.986;11.868;2022-08-21T01:50:04;19.80;83.20
15394;DHT22;7795;47.986;11.868;2022-08-21T01:52:30;19.80;83.20
15394;DHT22;7795;47.986;11.868;2022-08-21T01:54:56;19.80;83.20
15394;DHT22;7795;47.986;11.868;2022-08-21T01:57:24;19.80;83.30
15394;DHT22;7795;47.986;11.868;2022-08-21T01:59:50;19.80;83.30
15394;DHT22;7795;47.986;11.868;2022-08-21T02:02:16;19.80;83.30
15394;DHT22;7795;47.986;11.868;2022-08-21T02:04:42;19.80;83.40
15394;DHT22;7795;47.986;11.868;2022-08-21T02:07:08;19.70;83.30
15394;DHT22;7795;47.986;11.868;2022-08-21T02:09:33;19.70;83.40
15394;DHT22;7795;47.986;11.868;2022-08-21T02:11:59;19.70;83.40
15394;DHT22;7795;47.986;11.868;2022-08-21T02:14:26;19.70;84.10
15394;DHT22;7795;47.986;11.868;2022-08-21T02:16:52;19.70;83.40
15394;DHT22;7795;47.986;11.868;2022-08-21T02:19:18;19.70;84.20
15394;DHT22;7795;47.986;11.868;2022-08-21T02:21:44;19.70;83.40
15394;DHT22;7795;47.986;11.868;2022-08-21T02:24:11;19.70;83.50
15394;DHT22;7795;47.986;11.868;2022-08-21T02:26:37;19.70;83.50
15394;DHT22;7795;47.986;11.868;2022-08-21T02:29:03;19.70;83.40
15394;DHT22;7795;47.986;11.868;2022-08-21T02:31:31;19.60;83.30
15394;DHT22;7795;47.986;11.868;2022-08-21T02:33:57;19.60;83.40
15394;DHT22;7795;47.986;11.868;2022-08-21T02:36:23;19.60;83.40
15394;DHT22;7795;47.986;11.868;2022-08-21T02:38:48;19.60;83.40
15394;DHT22;7795;47.986;11.868;2022-08-21T02:41:17;19.60;83.40
15394;DHT22;7795;47.986;11.868;2022-08-21T02:43:43;19.60;83.40
15394;DHT22;7795;47.986;11.868;2022-08-21T02:46:12;19.60;83.40
15394;DHT22;7795;47.986;11.868;2022-08-21T02:48:40;19.60;83.40
15394;DHT22;7795;47.986;11.868;2022-08-21T02:51:08;19.60;83.40
15394;DHT22;7795;47.986;11.868;2022-08-21T02:53:35;19.60;83.30
15394;DHT22;7795;47.986;11.868;2022-08-21T02:56:06;19.50;83.30
15394;DHT22;7795;47.986;11.868;2022-08-21T02:58:37;19.50;83.30
15394;DHT22;7795;47.986;11.868;2022-08-21T03:01:04;19.50;83.30
15394;DHT22;7795;47.986;11.868;2022-08-21T03:03:30;19.40;83.20
15394;DHT22;7795;47.986;11.868;2022-08-21T03:05:57;19.50;84.00
15394;DHT22;7795;47.986;11.868;2022-08-21T03:08:23;19.40;83.30
15394;DHT22;7795;47.986;11.868;2022-08-21T03:10:51;19.40;83.40
15394;DHT22;7795;47.986;11.868;2022-08-21T03:13:18;19.40;83.40
15394;DHT22;7795;47.986;11.868;2022-08-21T03:15:45;19.30;83.30
15394;DHT22;7795;47.986;11.868;2022-08-21T03:18:11;19.40;83.40
15394;DHT22;7795;47.986;11.868;2022-08-21T03:20:38;19.30;83.30
15394;DHT22;7795;47.986;11.868;2022-08-21T03:23:06;19.30;83.30
15394;DHT22;7795;47.986;11.868;2022-08-21T03:25:34;19.30;83.30
15394;DHT22;7795;47.986;11.868;2022-08-21T03:28:01;19.30;83.40
15394;DHT22;7795;47.986;11.868;2022-08-21T03:30:28;19.20;83.40
15394;DHT22;7795;47.986;11.868;2022-08-21T03:32:56;19.20;83.40
15394;DHT22;7795;47.986;11.868;2022-08-21T03:35:23;19.20;83.40
15394;DHT22;7795;47.986;11.868;2022-08-21T03:37:49;19.20;83.40
15394;DHT22;7795;47.986;11.868;2022-08-21T03:40:17;19.20;83.50
15394;DHT22;7795;47.986;11.868;2022-08-21T03:42:43;19.20;83.50
15394;DHT22;7795;47.986;11.868;2022-08-21T03:45:13;19.10;83.40
15394;DHT22;7795;47.986;11.868;2022-08-21T03:47:50;19.10;83.50
15394;DHT22;7795;47.986;11.868;2022-08-21T03:50:16;19.10;83.60
15394;DHT22;7795;47.986;11.868;2022-08-21T03:52:42;19.10;83.50
15394;DHT22;7795;47.986;11.868;2022-08-21T03:55:08;19.00;83.40
15394;DHT22;7795;47.986;11.868;2022-08-21T03:57:35;19.00;83.40
15394;DHT22;7795;47.986;11.868;2022-08-21T04:00:01;19.00;83.50
15394;DHT22;7795;47.986;11.868;2022-08-21T04:02:27;19.00;84.20
15394;DHT22;7795;47.986;11.868;2022-08-21T04:04:53;19.00;83.50
15394;DHT22;7795;47.986;11.868;2022-08-21T04:07:19;19.00;83.50
15394;DHT22;7795;47.986;11.868;2022-08-21T04:09:45;19.00;83.50
15394;DHT22;7795;47.986;11.868;2022-08-21T04:12:10;19.00;83.60
15394;DHT22;7795;47.986;11.868;2022-08-21T04:14:37;18.90;83.60
15394;DHT22;7795;47.986;11.868;2022-08-21T04:17:04;18.90;83.60
15394;DHT22;7795;47.986;11.868;2022-08-21T04:19:29;18.90;83.60
15394;DHT22;7795;47.986;11.868;2022-08-21T04:21:55;18.90;83.60
15394;DHT22;7795;47.986;11.868;2022-08-21T04:24:21;18.90;83.60
15394;DHT22;7795;47.986;11.868;2022-08-21T04:26:47;18.90;83.80
15394;DHT22;7795;47.986;11.868;2022-08-21T04:29:12;18.80;83.70
15394;DHT22;7795;47.986;11.868;2022-08-21T04:31:39;18.80;83.70
15394;DHT22;7795;47.986;11.868;2022-08-21T04:34:05;18.80;83.80
15394;DHT22;7795;47.986;11.868;2022-08-21T04:36:31;18.80;83.80
15394;DHT22;7795;47.986;11.868;2022-08-21T04:38:57;18.80;83.90
15394;DHT22;7795;47.986;11.868;2022-08-21T04:41:23;18.80;83.90
15394;DHT22;7795;47.986;11.868;2022-08-21T04:43:48;18.80;83.90
15394;DHT22;7795;47.986;11.868;2022-08-21T04:46:15;18.80;83.90
15394;DHT22;7795;47.986;11.868;2022-08-21T04:48:42;18.80;84.70
15394;DHT22;7795;47.986;11.868;2022-08-21T04:51:10;18.80;84.00
15394;DHT22;7795;47.986;11.868;2022-08-21T04:53:39;18.80;84.00
15394;DHT22;7795;47.986;11.868;2022-08-21T04:56:12;18.80;84.10
15394;DHT22;7795;47.986;11.868;2022-08-21T04:58:40;18.80;84.10
15394;DHT22;7795;47.986;11.868;2022-08-21T05:01:12;18.70;84.10
15394;DHT22;7795;47.986;11.868;2022-08-21T05:03:38;18.80;84.30
15394;DHT22;7795;47.986;11.868;2022-08-21T05:06:10;18.80;84.20
15394;DHT22;7795;47.986;11.868;2022-08-21T05:08:38;18.80;84.20
15394;DHT22;7795;47.986;11.868;2022-08-21T05:11:06;18.80;84.20
15394;DHT22;7795;47.986;11.868;2022-08-21T05:13:32;18.80;84.30
15394;DHT22;7795;47.986;11.868;2022-08-21T05:15:58;18.80;84.30
15394;DHT22;7795;47.986;11.868;2022-08-21T05:18:24;18.80;84.30
15394;DHT22;7795;47.986;11.868;2022-08-21T05:20:50;18.90;84.50
15394;DHT22;7795;47.986;11.868;2022-08-21T05:23:17;18.90;84.60
15394;DHT22;7795;47.986;11.868;2022-08-21T05:25:43;19.00;84.80
15394;DHT22;7795;47.986;11.868;2022-08-21T05:28:10;19.10;84.90
15394;DHT22;7795;47.986;11.868;2022-08-21T05:30:37;19.20;84.80
15394;DHT22;7795;47.986;11.868;2022-08-21T05:33:04;19.20;84.60
15394;DHT22;7795;47.986;11.868;2022-08-21T05:35:31;19.30;84.50
15394;DHT22;7795;47.986;11.868;2022-08-21T05:37:57;19.40;84.40
15394;DHT22;7795;47.986;11.868;2022-08-21T05:40:25;19.50;84.20
15394;DHT22;7795;47.986;11.868;2022-08-21T05:42:52;19.60;84.00
15394;DHT22;7795;47.986;11.868;2022-08-21T05:45:18;19.70;84.10
15394;DHT22;7795;47.986;11.868;2022-08-21T05:47:44;19.80;84.00
15394;DHT22;7795;47.986;11.868;2022-08-21T05:50:10;19.90;83.80
15394;DHT22;7795;47.986;11.868;2022-08-21T05:52:36;20.00;83.70
15394;DHT22;7795;47.986;11.868;2022-08-21T05:55:02;20.10;83.60
15394;DHT22;7795;47.986;11.868;2022-08-21T05:57:30;20.20;83.50
15394;DHT22;7795;47.986;11.868;2022-08-21T05:59:55;20.30;84.10
15394;DHT22;7795;47.986;11.868;2022-08-21T06:02:21;20.40;83.30
15394;DHT22;7795;47.986;11.868;2022-08-21T06:04:48;20.60;83.00
15394;DHT22;7795;47.986;11.868;2022-08-21T06:07:14;20.60;82.70
15394;DHT22;7795;47.986;11.868;2022-08-21T06:09:40;20.80;82.50
15394;DHT22;7795;47.986;11.868;2022-08-21T06:12:08;20.90;82.20
15394;DHT22;7795;47.986;11.868;2022-08-21T06:14:36;21.00;81.80
15394;DHT22;7795;47.986;11.868;2022-08-21T06:17:03;21.10;81.50
15394;DHT22;7795;47.986;11.868;2022-08-21T06:19:29;21.20;81.20
15394;DHT22;7795;47.986;11.868;2022-08-21T06:21:55;21.30;81.10
15394;DHT22;7795;47.986;11.868;2022-08-21T06:24:20;21.30;81.00
15394;DHT22;7795;47.986;11.868;2022-08-21T06:26:46;21.40;81.10
15394;DHT22;7795;47.986;11.868;2022-08-21T06:29:12;21.40;81.30
15394;DHT22;7795;47.986;11.868;2022-08-21T06:31:43;21.50;80.30
15394;DHT22;7795;47.986;11.868;2022-08-21T06:34:10;21.60;80.50
15394;DHT22;7795;47.986;11.868;2022-08-21T06:36:36;21.70;80.30
15394;DHT22;7795;47.986;11.868;2022-08-21T06:39:02;21.70;79.90
15394;DHT22;7795;47.986;11.868;2022-08-21T06:41:27;21.80;79.70
15394;DHT22;7795;47.986;11.868;2022-08-21T06:43:54;21.90;79.60
15394;DHT22;7795;47.986;11.868;2022-08-21T06:46:20;22.00;79.40
15394;DHT22;7795;47.986;11.868;2022-08-21T06:48:48;22.00;79.30
15394;DHT22;7795;47.986;11.868;2022-08-21T06:51:14;22.10;79.20
15394;DHT22;7795;47.986;11.868;2022-08-21T06:53:40;22.10;79.90
15394;DHT22;7795;47.986;11.868;2022-08-21T06:56:06;22.20;78.80
15394;DHT22;7795;47.986;11.868;2022-08-21T06:58:32;22.20;78.40
15394;DHT22;7795;47.986;11.868;2022-08-21T07:00:58;22.20;78.30
15394;DHT22;7795;47.986;11.868;2022-08-21T07:03:26;22.30;78.30
15394;DHT22;7795;47.986;11.868;2022-08-21T07:05:54;22.30;77.60
15394;DHT22;7795;47.986;11.868;2022-08-21T07:08:20;22.30;77.10
15394;DHT22;7795;47.986;11.868;2022-08-21T07:10:47;22.30;77.30
15394;DHT22;7795;47.986;11.868;2022-08-21T07:13:14;22.30;77.40
15394;DHT22;7795;47.986;11.868;2022-08-21T07:15:40;22.30;77.30
15394;DHT22;7795;47.986;11.868;2022-08-21T07:18:06;22.30;77.10
15394;DHT22;7795;47.986;11.868;2022-08-21T07:20:32;22.30;76.90
15394;DHT22;7795;47.986;11.868;2022-08-21T07:23:03;22.30;76.80
15394;DHT22;7795;47.986;11.868;2022-08-21T07:25:29;22.30;76.40
15394;DHT22;7795;47.986;11.868;2022-08-21T07:27:55;22.30;76.60
15394;DHT22;7795;47.986;11.868;2022-08-21T07:30:22;22.30;76.10
15394;DHT22;7795;47.986;11.868;2022-08-21T07:32:48;22.30;75.90
15394;DHT22;7795;47.986;11.868;2022-08-21T07:35:17;22.30;75.40
15394;DHT22;7795;47.986;11.868;2022-08-21T07:37:43;22.30;75.40
15394;DHT22;7795;47.986;11.868;2022-08-21T07:40:11;22.30;75.10
15394;DHT22;7795;47.986;11.868;2022-08-21T07:42:40;22.30;75.00
15394;DHT22;7795;47.986;11.868;2022-08-21T07:45:07;22.30;74.60
15394;DHT22;7795;47.986;11.868;2022-08-21T07:47:33;22.40;74.40
15394;DHT22;7795;47.986;11.868;2022-08-21T07:49:59;22.40;74.60
15394;DHT22;7795;47.986;11.868;2022-08-21T07:52:25;22.40;74.50
15394;DHT22;7795;47.986;11.868;2022-08-21T07:54:51;22.40;74.80
15394;DHT22;7795;47.986;11.868;2022-08-21T07:57:18;22.50;74.70
15394;DHT22;7795;47.986;11.868;2022-08-21T07:59:44;22.50;74.60
15394;DHT22;7795;47.986;11.868;2022-08-21T08:02:10;22.60;74.80
15394;DHT22;7795;47.986;11.868;2022-08-21T08:04:36;22.60;74.90
15394;DHT22;7795;47.986;11.868;2022-08-21T08:07:02;22.70;74.30
15394;DHT22;7795;47.986;11.868;2022-08-21T08:09:28;22.70;74.10
15394;DHT22;7795;47.986;11.868;2022-08-21T08:11:53;22.80;74.10
15394;DHT22;7795;47.986;11.868;2022-08-21T08:14:21;22.80;74.10
15394;DHT22;7795;47.986;11.868;2022-08-21T08:16:47;22.90;73.80
15394;DHT22;7795;47.986;11.868;2022-08-21T08:19:12;23.00;73.80
15394;DHT22;7795;47.986;11.868;2022-08-21T08:21:38;23.00;73.40
15394;DHT22;7795;47.986;11.868;2022-08-21T08:24:04;23.00;73.30
15394;DHT22;7795;47.986;11.868;2022-08-21T08:26:30;23.10;73.10
15394;DHT22;7795;47.986;11.868;2022-08-21T08:28:56;23.20;73.30
15394;DHT22;7795;47.986;11.868;2022-08-21T08:31:23;23.20;73.00
15394;DHT22;7795;47.986;11.868;2022-08-21T08:33:49;23.30;72.20
15394;DHT22;7795;47.986;11.868;2022-08-21T08:36:17;23.30;72.30
15394;DHT22;7795;47.986;11.868;2022-08-21T08:38:43;23.40;72.20
15394;DHT22;7795;47.986;11.868;2022-08-21T08:41:12;23.40;71.90
15394;DHT22;7795;47.986;11.868;2022-08-21T08:43:40;23.50;71.50
15394;DHT22;7795;47.986;11.868;2022-08-21T08:46:18;23.50;71.80
15394;DHT22;7795;47.986;11.868;2022-08-21T08:48:51;23.60;71.20
15394;DHT22;7795;47.986;11.868;2022-08-21T08:51:23;23.70;71.20
15394;DHT22;7795;47.986;11.868;2022-08-21T08:53:52;23.70;71.00
15394;DHT22;7795;47.986;11.868;2022-08-21T08:56:22;23.80;71.00
15394;DHT22;7795;47.986;11.868;2022-08-21T08:58:52;23.80;71.60
15394;DHT22;7795;47.986;11.868;2022-08-21T09:01:20;23.80;71.30
15394;DHT22;7795;47.986;11.868;2022-08-21T09:03:49;23.90;71.30
15394;DHT22;7795;47.986;11.868;2022-08-21T09:06:26;23.90;71.10
15394;DHT22;7795;47.986;11.868;2022-08-21T09:08:59;24.00;69.90
15394;DHT22;7795;47.986;11.868;2022-08-21T09:11:30;24.10;70.00
15394;DHT22;7795;47.986;11.868;2022-08-21T09:14:05;24.10;70.00
15394;DHT22;7795;47.986;11.868;2022-08-21T09:16:40;24.10;69.90
15394;DHT22;7795;47.986;11.868;2022-08-21T09:19:27;24.20;69.30
15394;DHT22;7795;47.986;11.868;2022-08-21T09:22:11;24.30;69.00
15394;DHT22;7795;47.986;11.868;2022-08-21T09:24:47;24.30;68.90
15394;DHT22;7795;47.986;11.868;2022-08-21T09:27:18;24.40;68.70
15394;DHT22;7795;47.986;11.868;2022-08-21T09:29:47;24.40;69.50
15394;DHT22;7795;47.986;11.868;2022-08-21T09:32:16;24.50;69.20
15394;DHT22;7795;47.986;11.868;2022-08-21T09:34:57;24.60;68.50
15394;DHT22;7795;47.986;11.868;2022-08-21T09:37:24;24.60;67.10
15394;DHT22;7795;47.986;11.868;2022-08-21T09:39:50;24.70;68.20
15394;DHT22;7795;47.986;11.868;2022-08-21T09:42:23;24.80;68.20
15394;DHT22;7795;47.986;11.868;2022-08-21T09:45:00;24.80;66.60
15394;DHT22;7795;47.986;11.868;2022-08-21T09:47:29;24.90;67.20
15394;DHT22;7795;47.986;11.868;2022-08-21T09:50:07;24.90;66.80
15394;DHT22;7795;47.986;11.868;2022-08-21T09:52:33;25.00;65.60
15394;DHT22;7795;47.986;11.868;2022-08-21T09:55:00;25.00;66.40
15394;DHT22;7795;47.986;11.868;2022-08-21T09:57:28;25.00;66.60
15394;DHT22;7795;47.986;11.868;2022-08-21T10:00:19;25.10;66.00
15394;DHT22;7795;47.986;11.868;2022-08-21T10:02:45;25.10;66.50
15394;DHT22;7795;47.986;11.868;2022-08-21T10:05:18;25.10;66.30
15394;DHT22;7795;47.986;11.868;2022-08-21T10:07:44;25.20;65.50
15394;DHT22;7795;47.986;11.868;2022-08-21T10:10:17;25.20;65.60
15394;DHT22;7795;47.986;11.868;2022-08-21T10:12:49;25.20;64.80
15394;DHT22;7795;47.986;11.868;2022-08-21T10:15:22;25.30;64.80
15394;DHT22;7795;47.986;11.868;2022-08-21T10:17:56;25.30;64.80
15394;DHT22;7795;47.986;11.868;2022-08-21T10:20:31;25.30;64.30
15394;DHT22;7795;47.986;11.868;2022-08-21T10:23:13;25.30;64.30
15394;DHT22;7795;47.986;11.868;2022-08-21T10:25:47;25.30;64.30
15394;DHT22;7795;47.986;11.868;2022-08-21T10:28:18;25.30;64.00
15394;DHT22;7795;47.986;11.868;2022-08-21T10:30:50;25.30;64.60
15394;DHT22;7795;47.986;11.868;2022-08-21T10:33:27;25.20;63.90
15394;DHT22;7795;47.986;11.868;2022-08-21T10:36:04;25.30;63.50
15394;DHT22;7795;47.986;11.868;2022-08-21T10:39:06;25.40;63.30
15394;DHT22;7795;47.986;11.868;2022-08-21T10:41:59;25.40;61.80
15394;DHT22;7795;47.986;11.868;2022-08-21T10:44:37;25.50;62.50
15394;DHT22;7795;47.986;11.868;2022-08-21T10:47:09;25.60;62.90
15394;DHT22;7795;47.986;11.868;2022-08-21T10:49:41;25.70;62.70
15394;DHT22;7795;47.986;11.868;2022-08-21T10:52:34;25.80;62.00
15394;DHT22;7795;47.986;11.868;2022-08-21T10:55:06;25.90;60.90
15394;DHT22;7795;47.986;11.868;2022-08-21T10:57:40;26.00;61.60
15394;DHT22;7795;47.986;11.868;2022-08-21T11:00:10;26.10;61.20
15394;DHT22;7795;47.986;11.868;2022-08-21T11:02:40;26.20;61.60
15394;DHT22;7795;47.986;11.868;2022-08-21T11:05:13;26.20;62.30
15394;DHT22;7795;47.986;11.868;2022-08-21T11:07:45;26.30;62.00
15394;DHT22;7795;47.986;11.868;2022-08-21T11:10:16;26.40;61.40
15394;DHT22;7795;47.986;11.868;2022-08-21T11:12:46;26.40;61.30
15394;DHT22;7795;47.986;11.868;2022-08-21T11:15:27;26.50;61.30
15394;DHT22;7795;47.986;11.868;2022-08-21T11:18:00;26.50;60.20
15394;DHT22;7795;47.986;11.868;2022-08-21T11:20:30;26.50;60.70
15394;DHT22;7795;47.986;11.868;2022-08-21T11:23:04;26.50;61.10
15394;DHT22;7795;47.986;11.868;2022-08-21T11:25:35;26.50;60.30
15394;DHT22;7795;47.986;11.868;2022-08-21T11:28:08;26.50;60.20
15394;DHT22;7795;47.986;11.868;2022-08-21T11:30:43;26.50;59.50
15394;DHT22;7795;47.986;11.868;2022-08-21T11:33:23;26.50;59.10
15394;DHT22;7795;47.986;11.868;2022-08-21T11:35:57;26.50;58.90
15394;DHT22;7795;47.986;11.868;2022-08-21T11:38:35;26.50;58.30
15394;DHT22;7795;47.986;11.868;2022-08-21T11:41:22;26.50;58.20
15394;DHT22;7795;47.986;11.868;2022-08-21T11:43:54;26.60;57.40
15394;DHT22;7795;47.986;11.868;2022-08-21T11:46:28;26.60;58.10
15394;DHT22;7795;47.986;11.868;2022-08-21T11:49:06;26.60;58.20
15394;DHT22;7795;47.986;11.868;2022-08-21T11:51:41;26.60;58.40
15394;DHT22;7795;47.986;11.868;2022-08-21T11:54:19;26.60;58.70
15394;DHT22;7795;47.986;11.868;2022-08-21T11:56:50;26.70;58.10
15394;DHT22;7795;47.986;11.868;2022-08-21T11:59:22;26.70;58.60
15394;DHT22;7795;47.986;11.868;2022-08-21T12:01:50;26.70;58.30
15394;DHT22;7795;47.986;11.868;2022-08-21T12:04:24;26.80;58.50
15394;DHT22;7795;47.986;11.868;2022-08-21T12:06:52;26.80;58.50
15394;DHT22;7795;47.986;11.868;2022-08-21T12:09:32;26.90;58.50
15394;DHT22;7795;47.986;11.868;2022-08-21T12:12:04;26.90;56.90
15394;DHT22;7795;47.986;11.868;2022-08-21T12:14:38;27.00;56.50
15394;DHT22;7795;47.986;11.868;2022-08-21T12:17:06;27.00;55.50
15394;DHT22;7795;47.986;11.868;2022-08-21T12:19:32;27.10;56.10
15394;DHT22;7795;47.986;11.868;2022-08-21T12:22:06;27.10;56.20
15394;DHT22;7795;47.986;11.868;2022-08-21T12:24:37;27.10;56.10
15394;DHT22;7795;47.986;11.868;2022-08-21T12:27:18;27.10;56.00
15394;DHT22;7795;47.986;11.868;2022-08-21T12:29:52;27.10;55.30
15394;DHT22;7795;47.986;11.868;2022-08-21T12:32:25;27.10;56.00
15394;DHT22;7795;47.986;11.868;2022-08-21T12:34:55;27.10;55.50
15394;DHT22;7795;47.986;11.868;2022-08-21T12:37:30;27.10;55.70
15394;DHT22;7795;47.986;11.868;2022-08-21T12:40:03;27.10;55.30
15394;DHT22;7795;47.986;11.868;2022-08-21T12:42:34;27.10;55.50
15394;DHT22;7795;47.986;11.868;2022-08-21T12:45:06;27.10;55.20
15394;DHT22;7795;47.986;11.868;2022-08-21T12:47:44;27.10;55.30
15394;DHT22;7795;47.986;11.868;2022-08-21T12:50:16;27.10;54.90
15394;DHT22;7795;47.986;11.868;2022-08-21T12:52:48;27.20;55.50
15394;DHT22;7795;47.986;11.868;2022-08-21T12:55:26;27.30;55.60
15394;DHT22;7795;47.986;11.868;2022-08-21T12:57:53;27.30;55.30
15394;DHT22;7795;47.986;11.868;2022-08-21T13:00:22;27.40;56.00
15394;DHT22;7795;47.986;11.868;2022-08-21T13:02:49;27.40;55.60
15394;DHT22;7795;47.986;11.868;2022-08-21T13:05:23;27.40;55.50
15394;DHT22;7795;47.986;11.868;2022-08-21T13:07:49;27.50;55.70
15394;DHT22;7795;47.986;11.868;2022-08-21T13:10:20;27.50;55.20
15394;DHT22;7795;47.986;11.868;2022-08-21T13:12:47;27.50;54.60
15394;DHT22;7795;47.986;11.868;2022-08-21T13:15:14;27.50;54.80
15394;DHT22;7795;47.986;11.868;2022-08-21T13:17:47;27.50;54.60
15394;DHT22;7795;47.986;11.868;2022-08-21T13:20:20;27.50;53.90
15394;DHT22;7795;47.986;11.868;2022-08-21T13:22:47;27.50;54.10
15394;DHT22;7795;47.986;11.868;2022-08-21T13:25:15;27.50;54.60
15394;DHT22;7795;47.986;11.868;2022-08-21T13:27:44;27.50;54.20
15394;DHT22;7795;47.986;11.868;2022-08-21T13:30:18;27.50;53.50
15394;DHT22;7795;47.986;11.868;2022-08-21T13:32:47;27.50;53.30
15394;DHT22;7795;47.986;11.868;2022-08-21T13:35:17;27.40;53.40
15394;DHT22;7795;47.986;11.868;2022-08-21T13:37:45;27.40;53.20
15394;DHT22;7795;47.986;11.868;2022-08-21T13:40:14;27.40;53.00
15394;DHT22;7795;47.986;11.868;2022-08-21T13:42:44;27.40;53.70
15394;DHT22;7795;47.986;11.868;2022-08-21T13:45:13;27.40;54.20
15394;DHT22;7795;47.986;11.868;2022-08-21T13:47:40;27.30;54.20
15394;DHT22;7795;47.986;11.868;2022-08-21T13:50:07;27.40;54.50
15394;DHT22;7795;47.986;11.868;2022-08-21T13:52:33;27.30;54.30
15394;DHT22;7795;47.986;11.868;2022-08-21T13:55:07;27.30;54.10
15394;DHT22;7795;47.986;11.868;2022-08-21T13:57:34;27.30;54.00
15394;DHT22;7795;47.986;11.868;2022-08-21T14:00:13;27.20;54.20
15394;DHT22;7795;47.986;11.868;2022-08-21T14:02:41;27.20;54.00
15394;DHT22;7795;47.986;11.868;2022-08-21T14:05:15;27.20;53.80
15394;DHT22;7795;47.986;11.868;2022-08-21T14:07:42;27.20;53.50
15394;DHT22;7795;47.986;11.868;2022-08-21T14:10:13;27.20;54.70
15394;DHT22;7795;47.986;11.868;2022-08-21T14:12:42;27.20;53.70
15394;DHT22;7795;47.986;11.868;2022-08-21T14:15:12;27.20;54.00
15394;DHT22;7795;47.986;11.868;2022-08-21T14:17:39;27.20;53.90
15394;DHT22;7795;47.986;11.868;2022-08-21T14:20:10;27.20;54.00
15394;DHT22;7795;47.986;11.868;2022-08-21T14:22:38;27.20;54.10
15394;DHT22;7795;47.986;11.868;2022-08-21T14:25:07;27.30;53.80
15394;DHT22;7795;47.986;11.868;2022-08-21T14:27:34;27.30;53.00
15394;DHT22;7795;47.986;11.868;2022-08-21T14:30:03;27.30;52.90
15394;DHT22;7795;47.986;11.868;2022-08-21T14:32:39;27.40;52.70
15394;DHT22;7795;47.986;11.868;2022-08-21T14:35:05;27.40;52.00
15394;DHT22;7795;47.986;11.868;2022-08-21T14:37:31;27.40;52.10
15394;DHT22;7795;47.986;11.868;2022-08-21T14:39:57;27.40;51.60
15394;DHT22;7795;47.986;11.868;2022-08-21T14:42:24;27.50;51.50
15394;DHT22;7795;47.986;11.868;2022-08-21T14:44:50;27.50;51.50
15394;DHT22;7795;47.986;11.868;2022-08-21T14:47:16;27.50;51.60
15394;DHT22;7795;47.986;11.868;2022-08-21T14:49:43;27.50;51.60
15394;DHT22;7795;47.986;11.868;2022-08-21T14:52:09;27.60;51.20
15394;DHT22;7795;47.986;11.868;2022-08-21T14:54:35;27.60;51.40
15394;DHT22;7795;47.986;11.868;2022-08-21T14:57:03;27.60;51.60
15394;DHT22;7795;47.986;11.868;2022-08-21T14:59:31;27.70;51.60
15394;DHT22;7795;47.986;11.868;2022-08-21T15:01:58;27.70;52.20
15394;DHT22;7795;47.986;11.868;2022-08-21T15:04:24;27.70;51.60
15394;DHT22;7795;47.986;11.868;2022-08-21T15:06:51;27.70;51.60
15394;DHT22;7795;47.986;11.868;2022-08-21T15:09:17;27.70;51.60
15394;DHT22;7795;47.986;11.868;2022-08-21T15:11:43;27.70;51.80
15394;DHT22;7795;47.986;11.868;2022-08-21T15:14:12;27.70;52.20
15394;DHT22;7795;47.986;11.868;2022-08-21T15:16:39;27.70;52.30
15394;DHT22;7795;47.986;11.868;2022-08-21T15:19:05;27.70;52.00
15394;DHT22;7795;47.986;11.868;2022-08-21T15:21:30;27.70;52.10
15394;DHT22;7795;47.986;11.868;2022-08-21T15:23:58;27.80;51.80
15394;DHT22;7795;47.986;11.868;2022-08-21T15:26:23;27.80;52.10
15394;DHT22;7795;47.986;11.868;2022-08-21T15:28:49;27.80;52.30
15394;DHT22;7795;47.986;11.868;2022-08-21T15:31:15;27.80;52.10
15394;DHT22;7795;47.986;11.868;2022-08-21T15:33:41;27.70;51.90
15394;DHT22;7795;47.986;11.868;2022-08-21T15:36:07;27.70;52.60
15394;DHT22;7795;47.986;11.868;2022-08-21T15:38:33;27.70;52.30
15394;DHT22;7795;47.986;11.868;2022-08-21T15:41:01;27.70;52.00